EDT,Max TemperatureF,Mean TemperatureF,Min TemperatureF,Max Dew PointF,MeanDew PointF,Min DewpointF,Max Humidity, Mean Humidity, Min Humidity, Max Sea Level PressureIn, Mean Sea Level PressureIn, Min Sea Level PressureIn, Max VisibilityMiles, Mean VisibilityMiles, Min VisibilityMiles, Max Wind SpeedMPH, Mean Wind SpeedMPH, Max Gust SpeedMPH,PrecipitationIn, CloudCover, Events, WindDirDegrees
2012-10-1,66,56,46,46,43,39,76,66,45,29.96,29.82,29.74,10,10,10,18,6,30,0.00,0,,239
2012-10-2,68,60,51,55,49,45,82,72,49,30.06,30.02,29.95,10,9,4,6,3,,0.11,3,,233
2012-10-3,64,60,57,57,54,52,82,79,77,30.15,30.08,30.03,5,1,0,8,4,,0.07,8,,43
2012-10-4,62,60,59,55,54,54,82,79,72,30.16,30.11,30.04,10,3,0,9,5,,0.03,8,,15
2012-10-5,73,63,53,55,51,46,82,70,38,30.04,29.99,29.94,10,7,0,10,3,,0.00,2,,257
2012-10-6,75,62,48,55,50,37,82,66,44,29.94,29.84,29.74,10,9,1,15,5,25,0.38,2,,230
2012-10-7,55,47,39,43,36,30,81,66,38,30.07,30.03,29.94,10,10,7,9,3,,0.15,3,,292
2012-10-8,55,46,37,39,35,28,76,64,44,30.30,30.20,30.05,10,10,2,8,3,,0.00,3,,327
2012-10-9,55,50,46,43,39,36,71,64,54,30.28,30.20,30.12,10,10,10,12,6,18,0.00,7,,51
2012-10-10,60,54,48,55,46,37,82,74,62,30.11,29.92,29.73,10,6,1,17,6,23,0.19,6,,21
2012-10-11,55,48,41,36,30,27,70,51,33,30.14,30.05,29.84,10,10,10,17,9,25,0.00,0,,270
2012-10-12,51,43,33,34,27,18,70,51,32,30.35,30.12,30.01,10,10,10,15,6,22,0.03,2,,285
2012-10-13,51,40,30,27,19,16,60,46,24,30.47,30.39,30.32,10,10,10,12,5,18,0.00,0,,292
2012-10-14,66,54,42,48,41,27,71,59,45,30.31,30.10,29.97,10,10,9,13,5,26,0.02,4,,211
2012-10-15,73,66,59,57,54,48,82,68,53,29.96,29.77,29.61,10,10,2,12,7,26,0.10,5,,205
2012-10-16,62,50,39,55,37,30,88,60,41,29.87,29.68,29.58,10,10,10,18,9,29,0.02,2,,293
2012-10-17,60,46,32,37,31,25,81,59,27,30.00,29.94,29.88,10,10,10,8,4,,0.00,0,,305
2012-10-18,62,50,37,46,40,30,87,67,42,30.11,30.06,30.00,10,9,2,9,2,17,0.00,1,,144
2012-10-19,66,58,51,61,53,45,88,77,59,30.06,29.90,29.74,10,7,2,14,6,25,0.34,8,,122
2012-10-20,73,63,53,59,51,36,83,64,31,29.76,29.69,29.63,10,8,1,13,5,24,0.78,4,Thunderstorm,208
2012-10-21,62,50,39,37,35,32,81,54,34,29.91,29.86,29.77,10,10,10,16,6,25,0.00,1,,259
2012-10-22,64,55,46,37,36,34,66,49,34,30.01,29.94,29.90,10,10,10,18,8,28,0.00,1,,274
2012-10-23,66,54,41,45,38,34,76,55,35,30.11,30.06,30.01,10,10,2,13,5,,0.01,2,,297
2012-10-24,53,50,46,45,37,32,76,60,50,30.21,30.16,30.11,10,10,10,9,3,,0.00,8,,27
2012-10-25,60,50,39,,,,,,,30.30,30.26,30.21,10,10,10,7,1,,0.00,5,,180
2012-10-26,66,54,42,,,,,,,30.26,30.23,30.16,10,10,5,8,1,,0.00,3,,202
2012-10-27,64,58,51,54,49,43,88,72,63,30.07,30.01,29.99,10,10,7,12,6,,0.00,6,,52
2012-10-28,53,52,50,52,48,45,94,84,76,29.99,29.89,29.72,10,8,2,17,11,25,0.03,6,,50
2012-10-29,62,56,51,61,54,48,94,89,82,29.71,29.37,29.09,10,5,1,26,17,41,1.61,8,,69
2012-10-30,66,60,53,57,54,52,94,84,60,29.55,29.48,29.28,10,8,2,15,9,25,1.40,6,,132
2012-10-31,53,48,44,52,44,39,94,80,66,29.57,29.52,29.46,10,8,0,9,3,,0.01,6,,201